createdAt,value
2022-12-18T00:00:00.288Z,46
2022-12-18T00:10:00.247Z,46
2022-12-18T00:20:00.352Z,47
2022-12-18T00:30:00.443Z,47
2022-12-18T00:40:00.727Z,48
2022-12-18T00:50:00.648Z,50
2022-12-18T01:00:00.808Z,49
2022-12-18T01:10:01.034Z,46
2022-12-18T01:20:01.261Z,43
2022-12-18T01:30:00.518Z,58
2022-12-18T01:40:01.442Z,63
2022-12-18T01:50:00.459Z,57
2022-12-18T02:00:00.355Z,60
2022-12-18T02:10:00.285Z,60
2022-12-18T02:20:00.237Z,118
2022-12-18T02:30:00.263Z,68
2022-12-18T02:40:00.382Z,54
2022-12-18T02:50:00.232Z,55
2022-12-18T03:00:00.283Z,85
2022-12-18T03:10:00.282Z,89
2022-12-18T03:20:00.234Z,62
2022-12-18T03:30:00.237Z,46
2022-12-18T03:40:00.268Z,52
2022-12-18T03:50:00.267Z,133
2022-12-18T04:00:00.813Z,59
2022-12-18T04:10:00.423Z,52
2022-12-18T04:20:00.660Z,48
2022-12-18T04:30:00.502Z,64
2022-12-18T04:40:00.560Z,52
2022-12-18T04:50:00.694Z,57
2022-12-18T05:00:00.861Z,91
2022-12-18T05:10:00.499Z,54
2022-12-18T05:20:00.681Z,47
2022-12-18T05:30:00.249Z,69
2022-12-18T05:40:00.273Z,55
2022-12-18T05:50:00.218Z,53
2022-12-18T06:00:00.367Z,49
2022-12-18T06:10:00.336Z,335
2022-12-18T06:20:00.242Z,184
2022-12-18T06:30:00.262Z,80
2022-12-18T06:40:00.521Z,261
2022-12-18T06:50:00.534Z,110
2022-12-18T07:00:00.706Z,73
2022-12-18T07:10:00.725Z,76
2022-12-18T07:20:00.697Z,379
2022-12-18T07:30:00.263Z,394
2022-12-18T07:40:00.239Z,448
2022-12-18T07:50:00.229Z,462
2022-12-18T08:00:00.322Z,360
2022-12-18T08:10:00.246Z,397
2022-12-18T08:20:00.227Z,367
2022-12-18T08:30:00.258Z,289
2022-12-18T08:40:00.271Z,295
2022-12-18T08:50:00.230Z,470
2022-12-18T09:00:00.436Z,373
2022-12-18T09:10:00.429Z,427
2022-12-18T09:20:00.458Z,367
2022-12-18T09:30:00.685Z,337
2022-12-18T09:40:00.839Z,279
2022-12-18T09:50:00.817Z,455
2022-12-18T10:00:00.734Z,308
2022-12-18T10:10:00.869Z,462
2022-12-18T10:20:00.367Z,310
2022-12-18T10:30:00.481Z,275
2022-12-18T10:40:00.272Z,222
2022-12-18T10:50:00.262Z,178
2022-12-18T11:00:00.513Z,144
2022-12-18T11:10:00.256Z,99
2022-12-18T11:20:00.269Z,97
2022-12-18T11:30:00.262Z,106
2022-12-18T11:40:00.273Z,84
2022-12-18T11:50:00.247Z,75
2022-12-18T12:00:00.664Z,59
2022-12-18T12:10:00.246Z,66
2022-12-18T12:20:00.281Z,194
2022-12-18T12:30:00.256Z,39
2022-12-18T12:40:00.237Z,81
2022-12-18T12:50:00.243Z,94
2022-12-18T13:00:00.704Z,86
2022-12-18T13:10:00.392Z,109
2022-12-18T13:20:00.524Z,123
2022-12-18T13:30:01.055Z,123
2022-12-18T13:40:00.742Z,129
2022-12-18T13:50:00.492Z,155
2022-12-18T14:00:00.353Z,433
2022-12-18T14:10:33.615Z,427
2022-12-18T14:20:00.240Z,481
2022-12-18T14:30:00.277Z,459
2022-12-18T14:40:03.197Z,423
2022-12-18T14:50:00.268Z,265
2022-12-18T15:00:00.343Z,197
2022-12-18T15:10:00.249Z,149
2022-12-18T15:20:00.254Z,268
2022-12-18T15:30:00.244Z,359
2022-12-18T15:40:00.241Z,242
2022-12-18T15:50:00.229Z,262
2022-12-18T16:00:00.313Z,419
2022-12-18T16:10:02.356Z,469
2022-12-18T16:20:00.438Z,252
2022-12-18T16:30:00.599Z,233
2022-12-18T16:40:00.590Z,146
2022-12-18T16:50:00.516Z,118
2022-12-18T17:00:05.273Z,184
2022-12-18T17:10:00.283Z,170
2022-12-18T17:20:00.246Z,329
2022-12-18T17:30:00.285Z,182
2022-12-18T17:40:00.313Z,198
2022-12-18T17:50:00.293Z,114
2022-12-18T18:00:00.344Z,160
2022-12-18T18:10:00.279Z,119
2022-12-18T18:20:00.265Z,153
2022-12-18T18:30:00.261Z,258
2022-12-18T18:40:00.264Z,312
2022-12-18T18:50:00.248Z,121
2022-12-18T19:00:00.309Z,98
2022-12-18T19:10:04.300Z,183
2022-12-18T19:20:00.226Z,321
2022-12-18T19:30:00.240Z,307
2022-12-18T19:40:00.369Z,295
2022-12-18T19:50:00.648Z,181
2022-12-18T20:00:00.899Z,158
2022-12-18T20:10:05.549Z,124
2022-12-18T20:20:00.781Z,241
2022-12-18T20:30:00.705Z,151
2022-12-18T20:40:00.465Z,124
2022-12-18T20:50:00.566Z,213
2022-12-18T21:00:00.453Z,124
2022-12-18T21:10:00.271Z,151
2022-12-18T21:20:00.243Z,156
2022-12-18T21:30:00.250Z,160
2022-12-18T21:40:00.275Z,95
2022-12-18T21:50:00.265Z,170
2022-12-18T22:00:00.297Z,93
2022-12-18T22:10:00.258Z,344
2022-12-18T22:20:00.252Z,154
2022-12-18T22:30:00.225Z,151
2022-12-18T22:40:02.777Z,169
2022-12-18T22:50:00.322Z,241
2022-12-18T23:00:00.812Z,201
2022-12-18T23:10:01.169Z,324
2022-12-18T23:20:00.421Z,171
2022-12-18T23:30:00.835Z,136
2022-12-18T23:40:00.721Z,169
2022-12-18T23:50:00.628Z,139
